createdAt,value
2019-05-02T00:00:41.508Z,85.59
2019-05-02T00:01:41.461Z,85.38
2019-05-02T00:02:41.448Z,85.38
2019-05-02T00:03:42.878Z,85.49
2019-05-02T00:04:41.438Z,85.28
2019-05-02T00:05:41.418Z,85.49
2019-05-02T00:06:42.930Z,85.63
2019-05-02T00:07:41.398Z,85.73
2019-05-02T00:08:41.379Z,85.83
2019-05-02T00:09:47.497Z,85.83
2019-05-02T00:10:42.371Z,85.63
2019-05-02T00:11:41.387Z,85.63
2019-05-02T00:12:41.345Z,85.42
2019-05-02T00:13:41.334Z,85.73
2019-05-02T00:14:41.332Z,85.42
2019-05-02T00:15:41.316Z,85.52
2019-05-02T00:16:45.119Z,85.52
2019-05-02T00:17:42.290Z,85.52
2019-05-02T00:18:41.273Z,85.73
2019-05-02T00:19:44.980Z,85.63
2019-05-02T00:20:42.279Z,85.42
2019-05-02T00:21:43.038Z,85.83
2019-05-02T00:22:41.249Z,85.94
2019-05-02T00:23:41.217Z,85.94
2019-05-02T00:24:41.214Z,85.83
2019-05-02T00:25:41.203Z,85.73
2019-05-02T00:26:41.200Z,85.63
2019-05-02T00:27:41.189Z,85.83
2019-05-02T00:28:42.878Z,85.52
2019-05-02T00:29:42.147Z,85.83
2019-05-02T00:30:41.189Z,85.63
2019-05-02T00:31:41.830Z,85.67
2019-05-02T00:32:42.127Z,85.87
2019-05-02T00:33:41.130Z,85.77
2019-05-02T00:34:41.109Z,86.18
2019-05-02T00:35:46.230Z,86.18
2019-05-02T00:36:42.088Z,85.97
2019-05-02T00:37:41.085Z,86.29
2019-05-02T00:38:41.066Z,86.39
2019-05-02T00:39:45.225Z,86.04
2019-05-02T00:40:42.048Z,86.15
2019-05-02T00:41:41.029Z,86.15
2019-05-02T00:42:41.016Z,85.94
2019-05-02T00:43:41.014Z,85.94
2019-05-02T00:44:42.055Z,85.94
2019-05-02T00:45:41.989Z,85.73
2019-05-02T00:46:40.976Z,85.52
2019-05-02T00:47:42.167Z,85.31
2019-05-02T00:48:41.959Z,85.31
2019-05-02T00:49:40.947Z,85.07
2019-05-02T00:50:45.307Z,84.97
2019-05-02T00:51:41.926Z,84.97
2019-05-02T00:52:40.927Z,84.66
2019-05-02T00:53:44.367Z,84.77
2019-05-02T00:54:41.889Z,84.77
2019-05-02T00:55:40.878Z,84.77
2019-05-02T00:56:44.061Z,84.66
2019-05-02T00:57:40.855Z,84.66
2019-05-02T00:58:40.858Z,84.56
2019-05-02T00:59:42.380Z,84.45
2019-05-02T01:00:40.829Z,84.42
2019-05-02T01:01:40.805Z,84.31
2019-05-02T01:02:41.826Z,84.00
2019-05-02T01:03:40.809Z,83.90
2019-05-02T01:04:40.785Z,84.00
2019-05-02T01:05:40.754Z,84.00
2019-05-02T01:06:40.779Z,84.11
2019-05-02T01:07:40.748Z,84.21
2019-05-02T01:08:40.774Z,84.11
2019-05-02T01:09:42.246Z,83.90
2019-05-02T01:10:41.745Z,83.90
2019-05-02T01:11:40.697Z,83.70
2019-05-02T01:12:44.491Z,83.59
2019-05-02T01:13:41.677Z,83.59
2019-05-02T01:14:40.664Z,83.70
2019-05-02T01:15:44.150Z,83.70
2019-05-02T01:16:40.694Z,83.59
2019-05-02T01:17:40.623Z,83.59
2019-05-02T01:18:41.397Z,83.55
2019-05-02T01:19:40.633Z,83.35
2019-05-02T01:20:40.594Z,83.25
2019-05-02T01:21:40.582Z,83.35
2019-05-02T01:22:40.589Z,83.25
2019-05-02T01:23:40.564Z,83.35
2019-05-02T01:24:41.672Z,83.45
2019-05-02T01:25:40.545Z,83.45
2019-05-02T01:26:40.535Z,83.45
2019-05-02T01:27:41.279Z,83.25
2019-05-02T01:28:40.521Z,83.14
2019-05-02T01:29:40.495Z,83.39
2019-05-02T01:30:42.479Z,83.49
2019-05-02T01:31:40.485Z,83.49
2019-05-02T01:32:40.463Z,83.39
2019-05-02T01:33:41.844Z,83.59
2019-05-02T01:34:40.453Z,83.70
2019-05-02T01:35:40.435Z,83.90
2019-05-02T01:36:41.014Z,83.70
2019-05-02T01:37:40.402Z,83.80
2019-05-02T01:38:40.396Z,83.76
2019-05-02T01:39:42.713Z,83.55
2019-05-02T01:40:40.402Z,83.45
2019-05-02T01:41:40.363Z,83.35
2019-05-02T01:42:44.367Z,83.14
2019-05-02T01:43:41.353Z,83.14
2019-05-02T01:44:40.322Z,83.14
2019-05-02T01:45:41.851Z,83.14
2019-05-02T01:46:40.321Z,83.25
2019-05-02T01:47:40.304Z,83.25
2019-05-02T01:48:45.775Z,83.45
2019-05-02T01:49:41.270Z,83.35
2019-05-02T01:50:40.282Z,83.45
2019-05-02T01:51:41.842Z,83.45
2019-05-02T01:52:41.232Z,83.35
2019-05-02T01:53:40.248Z,83.35
2019-05-02T01:54:40.739Z,83.35
2019-05-02T01:55:41.213Z,83.35
2019-05-02T01:56:40.222Z,83.35
2019-05-02T01:57:44.713Z,83.25
2019-05-02T01:58:41.161Z,83.25
2019-05-02T01:59:40.223Z,83.35
2019-05-02T02:00:40.962Z,83.35
2019-05-02T02:01:40.142Z,83.25
2019-05-02T02:02:40.152Z,83.04
2019-05-02T02:03:40.566Z,83.04
2019-05-02T02:04:41.100Z,83.04
2019-05-02T02:05:40.103Z,83.04
2019-05-02T02:06:43.284Z,83.04
2019-05-02T02:07:40.073Z,83.00
2019-05-02T02:08:40.061Z,83.04
2019-05-02T02:09:43.898Z,83.25
2019-05-02T02:10:43.715Z,83.35
2019-05-02T02:11:40.043Z,83.35
2019-05-02T02:12:41.225Z,83.35
2019-05-02T02:13:41.026Z,83.35
2019-05-02T02:14:40.020Z,83.14
2019-05-02T02:15:40.028Z,83.14
2019-05-02T02:16:40.601Z,83.14
2019-05-02T02:17:39.959Z,83.35
2019-05-02T02:18:39.960Z,83.55
2019-05-02T02:19:40.714Z,83.65
2019-05-02T02:20:39.942Z,83.65
2019-05-02T02:21:42.724Z,83.45
2019-05-02T02:22:41.083Z,83.45
2019-05-02T02:23:39.919Z,83.35
2019-05-02T02:24:39.896Z,83.25
2019-05-02T02:25:39.892Z,83.35
2019-05-02T02:26:43.578Z,83.35
2019-05-02T02:27:40.861Z,83.35
2019-05-02T02:28:39.859Z,83.45
2019-05-02T02:29:44.056Z,83.25
2019-05-02T02:30:40.835Z,83.25
2019-05-02T02:31:46.257Z,83.35
2019-05-02T02:32:40.794Z,83.25
2019-05-02T02:33:40.867Z,83.35
2019-05-02T02:34:40.778Z,83.45
2019-05-02T02:35:49.520Z,83.55
2019-05-02T02:36:40.759Z,83.65
2019-05-02T02:37:52.136Z,83.65
2019-05-02T02:38:40.744Z,83.76
2019-05-02T02:39:39.715Z,83.76
2019-05-02T02:40:39.701Z,83.65
2019-05-02T02:41:45.113Z,83.65
2019-05-02T02:42:40.688Z,83.55
2019-05-02T02:43:39.679Z,83.55
2019-05-02T02:44:41.630Z,83.62
2019-05-02T02:45:39.654Z,83.51
2019-05-02T02:46:40.204Z,83.41
2019-05-02T02:47:39.652Z,83.51
2019-05-02T02:48:40.630Z,83.41
2019-05-02T02:49:39.601Z,83.41
2019-05-02T02:50:42.928Z,83.41
2019-05-02T02:51:40.590Z,83.41
2019-05-02T02:52:44.807Z,83.20
2019-05-02T02:53:40.581Z,83.20
2019-05-02T02:54:43.396Z,83.41
2019-05-02T02:55:40.537Z,83.41
2019-05-02T02:56:40.465Z,83.51
2019-05-02T02:57:39.531Z,83.20
2019-05-02T02:58:45.788Z,83.20
2019-05-02T02:59:40.501Z,83.20
2019-05-02T03:00:41.405Z,83.31
2019-05-02T03:01:40.477Z,83.20
2019-05-02T03:02:47.698Z,83.11
2019-05-02T03:03:40.481Z,83.11
2019-05-02T03:04:44.237Z,83.11
2019-05-02T03:05:40.426Z,83.11
2019-05-02T03:06:45.160Z,83.20
2019-05-02T03:07:40.420Z,83.00
2019-05-02T03:08:46.291Z,83.00
2019-05-02T03:09:40.387Z,83.11
2019-05-02T03:10:44.777Z,83.11
2019-05-02T03:11:40.381Z,83.11
2019-05-02T03:12:41.475Z,83.20
2019-05-02T03:13:51.520Z,83.11
2019-05-02T03:14:41.038Z,83.20
2019-05-02T03:15:40.319Z,83.20
2019-05-02T03:16:46.019Z,83.11
2019-05-02T03:17:40.312Z,83.31
2019-05-02T03:18:40.764Z,83.41
2019-05-02T03:19:39.298Z,83.51
2019-05-02T03:20:40.878Z,83.72
2019-05-02T03:21:39.260Z,83.83
2019-05-02T03:22:41.949Z,83.62
2019-05-02T03:23:39.248Z,83.62
2019-05-02T03:24:44.223Z,83.27
2019-05-02T03:25:50.723Z,83.17
2019-05-02T03:26:40.192Z,82.96
2019-05-02T03:27:40.367Z,82.96
2019-05-02T03:28:39.188Z,82.86
2019-05-02T03:29:43.694Z,82.86
2019-05-02T03:30:40.161Z,82.76
2019-05-02T03:31:39.148Z,82.65
2019-05-02T03:32:39.146Z,82.45
2019-05-02T03:33:51.586Z,82.34
2019-05-02T03:34:52.970Z,82.45
2019-05-02T03:35:44.767Z,82.55
2019-05-02T03:36:40.092Z,82.65
2019-05-02T03:37:44.830Z,82.76
2019-05-02T03:38:40.089Z,82.86
2019-05-02T03:39:39.059Z,82.76
2019-05-02T03:40:41.310Z,82.55
2019-05-02T03:41:39.025Z,82.55
2019-05-02T03:42:44.685Z,82.41
2019-05-02T03:43:40.038Z,82.51
2019-05-02T03:44:38.997Z,82.41
2019-05-02T03:45:40.486Z,82.41
2019-05-02T03:46:38.985Z,82.41
2019-05-02T03:47:43.691Z,82.31
2019-05-02T03:48:39.991Z,82.41
2019-05-02T03:49:41.028Z,82.41
2019-05-02T03:50:39.940Z,82.51
2019-05-02T03:51:38.937Z,82.51
2019-05-02T03:52:43.460Z,82.51
2019-05-02T03:53:39.904Z,82.51
2019-05-02T03:54:48.978Z,82.51
2019-05-02T03:55:39.875Z,82.41
2019-05-02T03:56:44.930Z,82.41
2019-05-02T03:57:42.079Z,82.41
2019-05-02T03:58:38.851Z,82.20
2019-05-02T03:59:41.780Z,82.20
2019-05-02T04:00:38.815Z,82.10
2019-05-02T04:01:41.394Z,82.10
2019-05-02T04:02:38.792Z,82.20
2019-05-02T04:03:40.843Z,82.20
2019-05-02T04:04:38.783Z,82.20
2019-05-02T04:05:40.246Z,82.00
2019-05-02T04:06:38.758Z,82.20
2019-05-02T04:07:40.847Z,82.41
2019-05-02T04:08:38.724Z,82.71
2019-05-02T04:09:41.840Z,82.86
2019-05-02T04:10:38.738Z,83.06
2019-05-02T04:11:40.798Z,83.17
2019-05-02T04:12:38.697Z,83.37
2019-05-02T04:13:38.695Z,83.37
2019-05-02T04:14:39.385Z,83.27
2019-05-02T04:15:38.653Z,83.13
2019-05-02T04:16:38.657Z,83.03
2019-05-02T04:17:38.643Z,83.03
2019-05-02T04:18:38.645Z,82.92
2019-05-02T04:19:38.607Z,82.71
2019-05-02T04:20:43.678Z,82.71
2019-05-02T04:21:39.626Z,82.71
2019-05-02T04:22:42.670Z,82.62
2019-05-02T04:23:39.581Z,82.71
2019-05-02T04:24:38.563Z,82.71
2019-05-02T04:25:38.543Z,82.71
2019-05-02T04:26:38.554Z,82.92
2019-05-02T04:27:38.522Z,82.92
2019-05-02T04:28:38.532Z,83.13
2019-05-02T04:29:38.506Z,83.23
2019-05-02T04:30:38.491Z,83.23
2019-05-02T04:31:38.489Z,83.13
2019-05-02T04:32:42.507Z,83.03
2019-05-02T04:33:38.463Z,82.92
2019-05-02T04:34:38.477Z,82.71
2019-05-02T04:35:38.451Z,82.62
2019-05-02T04:36:38.444Z,82.51
2019-05-02T04:37:40.991Z,82.41
2019-05-02T04:38:47.056Z,82.41
2019-05-02T04:39:39.450Z,82.20
2019-05-02T04:40:41.725Z,82.20
2019-05-02T04:41:42.392Z,82.41
2019-05-02T04:42:39.262Z,82.41
2019-05-02T04:43:43.066Z,82.51
2019-05-02T04:44:52.709Z,82.71
2019-05-02T04:45:52.828Z,82.20
2019-05-02T04:46:39.330Z,82.41
2019-05-02T04:47:39.513Z,82.62
2019-05-02T04:48:43.877Z,82.17
2019-05-02T04:49:39.497Z,81.96
2019-05-02T04:50:38.272Z,81.86
2019-05-02T04:51:38.421Z,81.76
2019-05-02T04:52:47.247Z,81.45
2019-05-02T04:53:44.354Z,81.55
2019-05-02T04:54:39.281Z,81.55
2019-05-02T04:55:38.287Z,81.45
2019-05-02T04:56:42.244Z,81.45
2019-05-02T04:57:46.824Z,81.55
2019-05-02T04:58:40.604Z,81.55
2019-05-02T04:59:39.446Z,81.55
2019-05-02T05:00:39.249Z,81.34
2019-05-02T05:01:43.398Z,81.34
2019-05-02T05:02:40.009Z,81.24
2019-05-02T05:03:38.150Z,81.34
2019-05-02T05:04:46.107Z,81.34
2019-05-02T05:05:40.351Z,81.45
2019-05-02T05:06:40.752Z,81.34
2019-05-02T05:07:43.685Z,81.55
2019-05-02T05:08:41.745Z,81.45
2019-05-02T05:09:40.050Z,81.55
2019-05-02T05:10:41.482Z,81.55
2019-05-02T05:11:39.089Z,81.55
2019-05-02T05:12:41.774Z,81.14
2019-05-02T05:13:38.041Z,81.14
2019-05-02T05:14:42.850Z,81.04
2019-05-02T05:15:48.517Z,80.63
2019-05-02T05:16:40.075Z,80.42
2019-05-02T05:17:37.984Z,80.52
2019-05-02T05:18:38.006Z,80.63
2019-05-02T05:19:37.985Z,80.42
2019-05-02T05:20:40.379Z,80.32
2019-05-02T05:21:37.940Z,80.32
2019-05-02T05:22:44.213Z,80.18
2019-05-02T05:23:38.919Z,80.42
2019-05-02T05:24:42.114Z,80.42
2019-05-02T05:25:38.095Z,80.52
2019-05-02T05:26:40.985Z,80.73
2019-05-02T05:27:37.868Z,80.69
2019-05-02T05:28:40.459Z,80.38
2019-05-02T05:29:38.844Z,80.07
2019-05-02T05:30:45.032Z,80.18
2019-05-02T05:31:38.829Z,80.42
2019-05-02T05:32:37.795Z,80.58
2019-05-02T05:33:37.889Z,80.49
2019-05-02T05:34:38.023Z,80.49
2019-05-02T05:35:38.528Z,80.07
2019-05-02T05:36:37.756Z,79.97
2019-05-02T05:37:38.187Z,80.18
2019-05-02T05:38:40.461Z,80.18
2019-05-02T05:39:38.207Z,80.07
2019-05-02T05:40:37.722Z,79.77
2019-05-02T05:41:37.946Z,79.56
2019-05-02T05:42:38.256Z,79.66
2019-05-02T05:43:38.140Z,79.77
2019-05-02T05:44:39.894Z,79.77
2019-05-02T05:45:48.775Z,79.77
2019-05-02T05:46:42.407Z,79.56
2019-05-02T05:47:37.866Z,79.66
2019-05-02T05:48:40.773Z,79.77
2019-05-02T05:49:37.669Z,79.87
2019-05-02T05:50:41.264Z,79.56
2019-05-02T05:51:37.605Z,79.52
2019-05-02T05:52:38.752Z,79.42
2019-05-02T05:53:37.661Z,79.11
2019-05-02T05:54:40.503Z,79.01
2019-05-02T05:55:38.314Z,78.91
2019-05-02T05:56:42.862Z,78.81
2019-05-02T05:57:38.600Z,78.60
2019-05-02T05:58:39.994Z,78.46
2019-05-02T05:59:38.516Z,78.29
2019-05-02T06:00:38.008Z,78.39
2019-05-02T06:01:38.598Z,78.29
2019-05-02T06:02:50.853Z,78.50
2019-05-02T06:03:43.846Z,78.70
2019-05-02T06:04:39.405Z,78.91
2019-05-02T06:05:38.437Z,78.91
2019-05-02T06:06:37.818Z,78.77
2019-05-02T06:07:41.845Z,78.67
2019-05-02T06:08:38.605Z,78.67
2019-05-02T06:09:37.406Z,78.16
2019-05-02T06:10:39.017Z,77.84
2019-05-02T06:11:38.688Z,78.25
2019-05-02T06:12:37.369Z,78.25
2019-05-02T06:13:38.194Z,78.16
2019-05-02T06:14:37.493Z,77.84
2019-05-02T06:15:39.076Z,77.91
2019-05-02T06:16:37.334Z,78.02
2019-05-02T06:17:37.303Z,77.61
2019-05-02T06:18:41.733Z,77.20
2019-05-02T06:19:38.283Z,77.06
2019-05-02T06:20:37.307Z,76.95
2019-05-02T06:21:40.085Z,76.75
2019-05-02T06:22:38.252Z,76.54
2019-05-02T06:23:41.086Z,76.34
2019-05-02T06:24:37.236Z,76.99
2019-05-02T06:25:37.224Z,77.40
2019-05-02T06:26:37.222Z,77.61
2019-05-02T06:27:37.201Z,77.50
2019-05-02T06:28:41.748Z,77.20
2019-05-02T06:29:38.171Z,77.40
2019-05-02T06:30:37.163Z,77.06
2019-05-02T06:31:38.134Z,76.68
2019-05-02T06:32:38.332Z,76.48
2019-05-02T06:33:37.146Z,76.44
2019-05-02T06:34:38.759Z,76.65
2019-05-02T06:35:38.105Z,76.54
2019-05-02T06:36:38.086Z,76.14
2019-05-02T06:37:37.115Z,76.44
2019-05-02T06:38:37.074Z,76.44
2019-05-02T06:39:37.061Z,76.34
2019-05-02T06:40:39.289Z,76.44
2019-05-02T06:41:38.044Z,76.24
2019-05-02T06:42:38.061Z,76.20
2019-05-02T06:43:41.355Z,75.48
2019-05-02T06:44:38.061Z,75.38
2019-05-02T06:45:37.604Z,75.38
2019-05-02T06:46:37.110Z,75.28
2019-05-02T06:47:41.685Z,75.07
2019-05-02T06:48:37.969Z,74.97
2019-05-02T06:49:36.970Z,74.66
2019-05-02T06:50:39.006Z,75.28
2019-05-02T06:51:36.935Z,75.18
2019-05-02T06:52:36.922Z,75.07
2019-05-02T06:53:41.251Z,74.97
2019-05-02T06:54:37.902Z,74.87
2019-05-02T06:55:38.723Z,74.63
2019-05-02T06:56:36.870Z,74.43
2019-05-02T06:57:36.870Z,74.11
2019-05-02T06:58:37.126Z,74.11
2019-05-02T06:59:36.848Z,74.32
2019-05-02T07:00:55.252Z,74.29
2019-05-02T07:01:37.832Z,74.29
2019-05-02T07:02:36.836Z,73.68
2019-05-02T07:03:41.315Z,73.54
2019-05-02T07:04:37.804Z,73.03
2019-05-02T07:05:36.779Z,72.82
2019-05-02T07:06:56.092Z,72.52
2019-05-02T07:07:37.908Z,72.72
2019-05-02T07:08:36.769Z,72.72
2019-05-02T07:09:40.703Z,72.11
2019-05-02T07:10:44.353Z,71.87
2019-05-02T07:11:38.749Z,71.66
2019-05-02T07:12:36.707Z,71.25
2019-05-02T07:13:41.880Z,71.25
2019-05-02T07:14:37.692Z,71.05
2019-05-02T07:15:38.420Z,70.71
2019-05-02T07:16:38.973Z,70.30
2019-05-02T07:17:38.406Z,70.20
2019-05-02T07:18:36.639Z,69.79
2019-05-02T07:19:36.628Z,70.00
2019-05-02T07:20:40.704Z,69.89
2019-05-02T07:21:37.609Z,69.89
2019-05-02T07:22:38.794Z,69.69
2019-05-02T07:23:36.584Z,69.48
2019-05-02T07:24:36.579Z,69.76
2019-05-02T07:25:39.161Z,69.04
2019-05-02T07:26:36.548Z,68.33
2019-05-02T07:27:38.926Z,67.68
2019-05-02T07:28:40.174Z,67.68
2019-05-02T07:29:37.520Z,66.94
2019-05-02T07:30:36.521Z,67.35
2019-05-02T07:31:36.506Z,67.24
2019-05-02T07:32:36.477Z,66.39
2019-05-02T07:33:37.563Z,66.39
2019-05-02T07:34:36.549Z,66.70
2019-05-02T07:35:36.451Z,66.60
2019-05-02T07:36:38.316Z,66.30
2019-05-02T07:37:36.430Z,66.27
2019-05-02T07:38:36.427Z,66.16
2019-05-02T07:39:40.892Z,65.62
2019-05-02T07:40:37.409Z,65.62
2019-05-02T07:41:37.271Z,65.22
2019-05-02T07:42:36.863Z,64.67
2019-05-02T07:43:37.360Z,64.47
2019-05-02T07:44:36.348Z,64.57
2019-05-02T07:45:40.329Z,63.96
2019-05-02T07:46:50.702Z,64.23
2019-05-02T07:47:40.120Z,64.54
2019-05-02T07:48:36.340Z,64.34
2019-05-02T07:49:36.289Z,64.75
2019-05-02T07:50:36.278Z,64.23
2019-05-02T07:51:36.269Z,64.14
2019-05-02T07:52:36.286Z,63.83
2019-05-02T07:53:36.275Z,64.14
2019-05-02T07:54:36.241Z,64.14
2019-05-02T07:55:40.762Z,64.23
2019-05-02T07:56:37.217Z,64.54
2019-05-02T07:57:36.219Z,64.23
2019-05-02T07:58:38.491Z,64.06
2019-05-02T07:59:37.190Z,64.78
2019-05-02T08:00:37.206Z,64.87
2019-05-02T08:01:36.166Z,64.67
2019-05-02T08:02:36.156Z,64.54
2019-05-02T08:03:36.159Z,65.16
2019-05-02T08:04:36.139Z,64.75
2019-05-02T08:05:36.118Z,64.78
2019-05-02T08:06:40.232Z,64.87
2019-05-02T08:07:37.124Z,65.19
2019-05-02T08:08:36.479Z,65.28
2019-05-02T08:09:39.212Z,64.95
2019-05-02T08:10:37.068Z,64.84
2019-05-02T08:11:37.136Z,64.84
2019-05-02T08:12:36.049Z,64.95
2019-05-02T08:13:36.035Z,64.95
2019-05-02T08:14:36.414Z,64.44
2019-05-02T08:15:36.014Z,64.95
2019-05-02T08:16:35.999Z,64.75
2019-05-02T08:17:35.998Z,65.28
2019-05-02T08:18:35.975Z,66.10
2019-05-02T08:19:37.591Z,65.89
2019-05-02T08:20:36.945Z,66.20
2019-05-02T08:21:35.949Z,66.10
2019-05-02T08:22:35.947Z,65.89
2019-05-02T08:23:35.930Z,65.77
2019-05-02T08:24:37.964Z,65.36
2019-05-02T08:25:35.920Z,64.92
2019-05-02T08:26:35.890Z,64.58
2019-05-02T08:27:36.706Z,63.94
2019-05-02T08:28:35.874Z,63.16
2019-05-02T08:29:35.864Z,63.57
2019-05-02T08:30:40.548Z,63.77
2019-05-02T08:31:36.825Z,63.57
2019-05-02T08:32:35.830Z,63.67
2019-05-02T08:33:35.966Z,64.11
2019-05-02T08:34:35.808Z,64.38
2019-05-02T08:35:35.808Z,63.87
2019-05-02T08:36:35.766Z,63.43
2019-05-02T08:37:41.189Z,63.33
2019-05-02T08:38:36.756Z,63.00
2019-05-02T08:39:35.737Z,62.18
2019-05-02T08:40:35.736Z,62.52
2019-05-02T08:41:35.730Z,63.33
2019-05-02T08:42:35.717Z,63.64
2019-05-02T08:43:40.017Z,63.23
2019-05-02T08:44:49.951Z,63.23
2019-05-02T08:45:38.132Z,63.40
2019-05-02T08:46:35.668Z,62.93
2019-05-02T08:47:35.681Z,63.23
2019-05-02T08:48:36.375Z,63.10
2019-05-02T08:49:36.635Z,62.72
2019-05-02T08:50:35.636Z,63.84
2019-05-02T08:51:35.627Z,63.54
2019-05-02T08:52:36.867Z,63.74
2019-05-02T08:53:36.597Z,63.94
2019-05-02T08:54:35.593Z,63.43
2019-05-02T08:55:35.596Z,63.64
2019-05-02T08:56:35.589Z,63.43
2019-05-02T08:57:36.334Z,63.54
2019-05-02T08:58:35.537Z,63.64
2019-05-02T08:59:35.546Z,63.23
2019-05-02T09:00:37.446Z,63.23
2019-05-02T09:01:35.687Z,62.93
2019-05-02T09:02:41.538Z,63.23
2019-05-02T09:03:54.808Z,63.54
2019-05-02T09:04:36.496Z,63.33
2019-05-02T09:05:36.960Z,62.93
2019-05-02T09:06:36.476Z,63.10
2019-05-02T09:07:37.023Z,62.49
2019-05-02T09:08:35.424Z,62.29
2019-05-02T09:09:35.417Z,62.70
2019-05-02T09:10:37.089Z,63.00
2019-05-02T09:11:36.406Z,63.10
2019-05-02T09:12:36.841Z,62.05
2019-05-02T09:13:36.376Z,62.36
2019-05-02T09:14:35.378Z,62.05
2019-05-02T09:15:39.872Z,62.36
2019-05-02T09:16:36.355Z,62.33
2019-05-02T09:17:38.731Z,61.93
2019-05-02T09:18:40.587Z,61.90
2019-05-02T09:19:36.312Z,61.25
2019-05-02T09:20:35.294Z,60.65
2019-05-02T09:21:36.097Z,60.44
2019-05-02T09:22:35.276Z,60.55
2019-05-02T09:23:37.097Z,60.88
2019-05-02T09:24:35.256Z,61.29
2019-05-02T09:25:35.256Z,61.69
2019-05-02T09:26:38.627Z,61.69
2019-05-02T09:27:35.226Z,61.49
2019-05-02T09:28:35.206Z,61.59
2019-05-02T09:29:37.293Z,61.79
2019-05-02T09:30:36.197Z,61.99
2019-05-02T09:31:36.835Z,61.52
2019-05-02T09:32:37.235Z,62.02
2019-05-02T09:33:36.767Z,62.36
2019-05-02T09:34:36.147Z,62.76
2019-05-02T09:35:35.133Z,63.30
2019-05-02T09:36:38.095Z,63.51
2019-05-02T09:37:35.103Z,63.91
2019-05-02T09:38:35.106Z,64.22
2019-05-02T09:39:36.647Z,63.40
2019-05-02T09:40:35.074Z,63.30
2019-05-02T09:41:36.377Z,63.51
2019-05-02T09:42:35.043Z,63.81
2019-05-02T09:43:39.048Z,63.48
2019-05-02T09:44:35.056Z,62.66
2019-05-02T09:45:37.301Z,62.94
2019-05-02T09:46:35.016Z,62.43
2019-05-02T09:47:52.613Z,62.33
2019-05-02T09:48:35.986Z,62.30
2019-05-02T09:49:35.134Z,62.10
2019-05-02T09:50:38.094Z,62.40
2019-05-02T09:51:34.965Z,61.90
2019-05-02T09:52:39.556Z,62.40
2019-05-02T09:53:35.926Z,61.79
2019-05-02T09:54:36.927Z,61.39
2019-05-02T09:55:35.914Z,61.46
2019-05-02T09:56:34.903Z,61.05
2019-05-02T09:57:34.886Z,60.44
2019-05-02T09:58:34.885Z,61.16
2019-05-02T09:59:34.906Z,61.49
2019-05-02T10:00:36.356Z,61.36
2019-05-02T10:01:34.864Z,60.85
2019-05-02T10:02:34.824Z,61.05
2019-05-02T10:03:34.832Z,61.46
2019-05-02T10:04:34.827Z,60.95
2019-05-02T10:05:34.798Z,60.95
2019-05-02T10:06:34.797Z,60.85
2019-05-02T10:07:34.783Z,60.65
2019-05-02T10:08:38.212Z,60.55
2019-05-02T10:09:35.763Z,60.95
2019-05-02T10:10:37.137Z,60.72
2019-05-02T10:11:35.751Z,60.72
2019-05-02T10:12:34.725Z,60.28
2019-05-02T10:13:34.726Z,59.78
2019-05-02T10:14:34.702Z,59.58
2019-05-02T10:15:34.718Z,59.88
2019-05-02T10:16:34.714Z,59.88
2019-05-02T10:17:37.557Z,59.99
2019-05-02T10:18:35.660Z,59.48
2019-05-02T10:19:34.653Z,59.07
2019-05-02T10:20:36.370Z,59.34
2019-05-02T10:21:34.636Z,59.75
2019-05-02T10:22:39.462Z,58.84
2019-05-02T10:23:35.603Z,58.84
2019-05-02T10:24:34.593Z,58.34
2019-05-02T10:25:38.423Z,58.67
2019-05-02T10:26:35.575Z,59.27
2019-05-02T10:27:38.478Z,59.07
2019-05-02T10:28:35.562Z,59.27
2019-05-02T10:29:34.536Z,59.27
2019-05-02T10:30:36.077Z,59.38
2019-05-02T10:31:37.706Z,59.95
2019-05-02T10:32:34.521Z,59.95
2019-05-02T10:33:37.566Z,59.65
2019-05-02T10:34:34.485Z,59.45
2019-05-02T10:35:40.407Z,59.05
2019-05-02T10:36:35.497Z,59.32
2019-05-02T10:37:38.203Z,59.22
2019-05-02T10:38:35.445Z,58.61
2019-05-02T10:39:37.815Z,58.58
2019-05-02T10:40:34.412Z,57.67
2019-05-02T10:41:39.609Z,57.67
2019-05-02T10:42:35.405Z,57.87
2019-05-02T10:43:34.372Z,58.05
2019-05-02T10:44:36.431Z,57.54
2019-05-02T10:45:34.372Z,57.62
2019-05-02T10:46:37.687Z,56.91
2019-05-02T10:47:36.336Z,56.07
2019-05-02T10:48:34.325Z,55.98
2019-05-02T10:49:34.324Z,55.57
2019-05-02T10:50:34.318Z,54.96
2019-05-02T10:51:34.304Z,55.77
2019-05-02T10:52:34.417Z,56.07
2019-05-02T10:53:34.292Z,56.07
2019-05-02T10:54:37.465Z,55.57
2019-05-02T10:55:34.265Z,55.07
2019-05-02T10:56:34.231Z,55.16
2019-05-02T10:57:34.234Z,55.98
2019-05-02T10:58:35.668Z,54.56
2019-05-02T10:59:34.221Z,54.66
2019-05-02T11:00:34.203Z,54.56
2019-05-02T11:01:34.201Z,54.76
2019-05-02T11:02:34.173Z,54.46
2019-05-02T11:03:37.956Z,54.46
2019-05-02T11:04:35.155Z,54.76
2019-05-02T11:05:37.080Z,55.36
2019-05-02T11:06:37.173Z,55.87
2019-05-02T11:07:35.184Z,55.27
2019-05-02T11:08:36.842Z,54.86
2019-05-02T11:09:35.104Z,54.96
2019-05-02T11:10:34.094Z,54.86
2019-05-02T11:11:34.084Z,55.36
2019-05-02T11:12:41.898Z,55.16
2019-05-02T11:13:35.062Z,55.24
2019-05-02T11:14:34.042Z,55.32
2019-05-02T11:15:34.043Z,55.21
2019-05-02T11:16:34.021Z,54.10
2019-05-02T11:17:36.384Z,54.51
2019-05-02T11:18:42.012Z,53.78
2019-05-02T11:19:34.993Z,52.67
2019-05-02T11:20:33.994Z,52.67
2019-05-02T11:21:33.963Z,52.56
2019-05-02T11:22:33.971Z,52.97
2019-05-02T11:23:33.976Z,53.05
2019-05-02T11:24:33.943Z,52.44
2019-05-02T11:25:33.930Z,52.74
2019-05-02T11:26:33.914Z,52.87
2019-05-02T11:27:33.891Z,53.47
2019-05-02T11:28:33.902Z,53.75
2019-05-02T11:29:33.901Z,52.84
2019-05-02T11:30:33.861Z,52.14
2019-05-02T11:31:33.872Z,51.61
2019-05-02T11:32:33.841Z,51.31
2019-05-02T11:33:33.834Z,51.38
2019-05-02T11:34:33.821Z,50.35
2019-05-02T11:35:33.823Z,49.95
2019-05-02T11:36:33.803Z,50.35
2019-05-02T11:37:33.787Z,49.85
2019-05-02T11:38:34.140Z,50.05
2019-05-02T11:39:43.695Z,50.15
2019-05-02T11:40:34.783Z,50.15
2019-05-02T11:41:33.741Z,50.02
2019-05-02T11:42:33.734Z,50.63
2019-05-02T11:43:37.069Z,50.53
2019-05-02T11:44:34.712Z,50.43
2019-05-02T11:45:33.721Z,49.93
2019-05-02T11:46:37.539Z,50.20
2019-05-02T11:47:34.684Z,48.67
2019-05-02T11:48:33.675Z,47.94
2019-05-02T11:49:33.652Z,47.97
2019-05-02T11:50:35.422Z,47.77
2019-05-02T11:51:33.644Z,47.86
2019-05-02T11:52:37.324Z,47.69
2019-05-02T11:53:33.625Z,47.97
2019-05-02T11:54:33.634Z,47.26
2019-05-02T11:55:33.594Z,46.96
2019-05-02T11:56:33.604Z,47.97
2019-05-02T11:57:33.589Z,48.07
2019-05-02T11:58:33.561Z,48.69
2019-05-02T11:59:33.563Z,48.19
2019-05-02T12:00:33.544Z,48.41
2019-05-02T12:01:37.101Z,49.12
2019-05-02T12:02:34.512Z,49.12
2019-05-02T12:03:36.835Z,49.12
2019-05-02T12:04:33.482Z,49.02
2019-05-02T12:05:35.683Z,49.42
2019-05-02T12:06:33.504Z,49.02
2019-05-02T12:07:33.452Z,49.12
2019-05-02T12:08:33.443Z,48.11
2019-05-02T12:09:33.442Z,48.09
2019-05-02T12:10:36.668Z,48.61
2019-05-02T12:11:33.424Z,48.49
2019-05-02T12:12:36.269Z,48.29
2019-05-02T12:13:33.392Z,48.59
2019-05-02T12:14:36.370Z,48.39
2019-05-02T12:15:33.379Z,48.59
2019-05-02T12:16:33.364Z,48.09
2019-05-02T12:17:33.392Z,48.90
2019-05-02T12:18:33.336Z,47.99
2019-05-02T12:19:33.342Z,48.52
2019-05-02T12:20:36.560Z,49.02
2019-05-02T12:21:33.313Z,49.22
2019-05-02T12:22:33.329Z,49.55
2019-05-02T12:23:36.148Z,49.95
2019-05-02T12:24:36.391Z,49.85
2019-05-02T12:25:34.262Z,49.44
2019-05-02T12:26:33.251Z,48.94
2019-05-02T12:27:33.241Z,48.92
2019-05-02T12:28:33.245Z,49.22
2019-05-02T12:29:33.588Z,48.69
2019-05-02T12:30:36.491Z,47.86
2019-05-02T12:31:33.224Z,47.16
2019-05-02T12:32:33.513Z,47.54
2019-05-02T12:33:33.182Z,46.86
2019-05-02T12:34:33.162Z,47.77
2019-05-02T12:35:33.185Z,46.36
2019-05-02T12:36:33.502Z,46.76
2019-05-02T12:37:33.132Z,47.26
2019-05-02T12:38:33.126Z,47.97
2019-05-02T12:39:33.104Z,47.56
2019-05-02T12:40:33.105Z,47.66
2019-05-02T12:41:33.317Z,47.64
2019-05-02T12:42:33.679Z,47.82
2019-05-02T12:43:33.075Z,45.91
2019-05-02T12:44:33.062Z,45.59
2019-05-02T12:45:33.682Z,45.29
2019-05-02T12:46:33.045Z,44.76
2019-05-02T12:47:33.035Z,44.79
2019-05-02T12:48:33.035Z,44.18
2019-05-02T12:49:33.006Z,44.59
2019-05-02T12:50:32.983Z,44.91
2019-05-02T12:51:33.003Z,46.64
2019-05-02T12:52:32.975Z,46.58